sensor_id;sensor_type;location;lat;lon;timestamp;P1;durP1;ratioP1;P2;durP2;ratioP2
53503;SDS011;39387;50.998;22.340;2023-03-30T00:01:37;7.18;;;3.63;;
53503;SDS011;39387;50.998;22.340;2023-03-30T00:04:06;7.70;;;3.80;;
53503;SDS011;39387;50.998;22.340;2023-03-30T00:06:36;7.82;;;3.53;;
53503;SDS011;39387;50.998;22.340;2023-03-30T00:09:04;6.90;;;3.60;;
53503;SDS011;39387;50.998;22.340;2023-03-30T00:11:32;7.90;;;3.90;;
53503;SDS011;39387;50.998;22.340;2023-03-30T00:14:00;6.80;;;3.85;;
53503;SDS011;39387;50.998;22.340;2023-03-30T00:16:27;7.13;;;3.75;;
53503;SDS011;39387;50.998;22.340;2023-03-30T00:18:54;8.82;;;3.78;;
53503;SDS011;39387;50.998;22.340;2023-03-30T00:21:23;9.85;;;4.50;;
53503;SDS011;39387;50.998;22.340;2023-03-30T00:23:55;10.55;;;5.57;;
53503;SDS011;39387;50.998;22.340;2023-03-30T00:26:23;8.25;;;4.55;;
53503;SDS011;39387;50.998;22.340;2023-03-30T00:28:51;9.00;;;4.57;;
53503;SDS011;39387;50.998;22.340;2023-03-30T00:31:19;8.23;;;3.95;;
53503;SDS011;39387;50.998;22.340;2023-03-30T00:33:46;7.97;;;4.18;;
53503;SDS011;39387;50.998;22.340;2023-03-30T00:36:13;12.85;;;6.05;;
53503;SDS011;39387;50.998;22.340;2023-03-30T00:38:43;8.73;;;4.55;;
53503;SDS011;39387;50.998;22.340;2023-03-30T00:41:13;8.98;;;4.38;;
53503;SDS011;39387;50.998;22.340;2023-03-30T00:43:53;8.90;;;3.95;;
53503;SDS011;39387;50.998;22.340;2023-03-30T00:46:22;6.18;;;3.88;;
53503;SDS011;39387;50.998;22.340;2023-03-30T00:48:49;8.13;;;3.60;;
53503;SDS011;39387;50.998;22.340;2023-03-30T00:51:17;7.78;;;4.18;;
53503;SDS011;39387;50.998;22.340;2023-03-30T00:53:46;8.50;;;4.22;;
53503;SDS011;39387;50.998;22.340;2023-03-30T00:56:15;8.55;;;3.95;;
53503;SDS011;39387;50.998;22.340;2023-03-30T00:58:45;10.23;;;4.50;;
53503;SDS011;39387;50.998;22.340;2023-03-30T01:01:13;9.88;;;4.43;;
53503;SDS011;39387;50.998;22.340;2023-03-30T01:03:43;10.40;;;4.75;;
53503;SDS011;39387;50.998;22.340;2023-03-30T01:06:13;7.60;;;3.97;;
53503;SDS011;39387;50.998;22.340;2023-03-30T01:08:42;8.43;;;4.05;;
53503;SDS011;39387;50.998;22.340;2023-03-30T01:11:11;9.50;;;4.38;;
53503;SDS011;39387;50.998;22.340;2023-03-30T01:13:39;6.95;;;4.53;;
53503;SDS011;39387;50.998;22.340;2023-03-30T01:16:09;7.03;;;3.95;;
53503;SDS011;39387;50.998;22.340;2023-03-30T01:18:42;8.52;;;4.00;;
53503;SDS011;39387;50.998;22.340;2023-03-30T01:24:14;6.43;;;3.47;;
53503;SDS011;39387;50.998;22.340;2023-03-30T01:26:54;10.05;;;4.63;;
53503;SDS011;39387;50.998;22.340;2023-03-30T01:29:24;8.73;;;4.25;;
53503;SDS011;39387;50.998;22.340;2023-03-30T01:35:16;9.52;;;4.13;;
53503;SDS011;39387;50.998;22.340;2023-03-30T01:40:58;8.00;;;4.35;;
53503;SDS011;39387;50.998;22.340;2023-03-30T01:43:35;7.40;;;3.63;;
53503;SDS011;39387;50.998;22.340;2023-03-30T01:46:06;6.80;;;3.33;;
53503;SDS011;39387;50.998;22.340;2023-03-30T01:48:37;8.43;;;4.00;;
53503;SDS011;39387;50.998;22.340;2023-03-30T01:51:10;10.23;;;4.18;;
53503;SDS011;39387;50.998;22.340;2023-03-30T01:53:39;7.70;;;3.58;;
53503;SDS011;39387;50.998;22.340;2023-03-30T01:56:12;6.78;;;3.05;;
53503;SDS011;39387;50.998;22.340;2023-03-30T01:58:42;8.07;;;3.67;;
53503;SDS011;39387;50.998;22.340;2023-03-30T02:01:12;7.75;;;4.28;;
53503;SDS011;39387;50.998;22.340;2023-03-30T02:03:42;7.90;;;3.33;;
53503;SDS011;39387;50.998;22.340;2023-03-30T02:06:13;6.78;;;4.10;;
53503;SDS011;39387;50.998;22.340;2023-03-30T02:08:43;7.90;;;3.80;;
53503;SDS011;39387;50.998;22.340;2023-03-30T02:11:15;8.13;;;3.75;;
53503;SDS011;39387;50.998;22.340;2023-03-30T02:13:42;5.85;;;3.03;;
53503;SDS011;39387;50.998;22.340;2023-03-30T02:16:12;8.52;;;3.47;;
53503;SDS011;39387;50.998;22.340;2023-03-30T02:18:42;5.07;;;3.08;;
53503;SDS011;39387;50.998;22.340;2023-03-30T02:21:09;8.45;;;3.78;;
53503;SDS011;39387;50.998;22.340;2023-03-30T02:23:38;9.55;;;3.47;;
53503;SDS011;39387;50.998;22.340;2023-03-30T02:26:08;6.32;;;3.33;;
53503;SDS011;39387;50.998;22.340;2023-03-30T02:28:37;8.50;;;3.47;;
53503;SDS011;39387;50.998;22.340;2023-03-30T02:31:05;9.82;;;3.40;;
53503;SDS011;39387;50.998;22.340;2023-03-30T02:36:08;6.68;;;3.47;;
53503;SDS011;39387;50.998;22.340;2023-03-30T02:41:39;6.50;;;2.93;;
53503;SDS011;39387;50.998;22.340;2023-03-30T02:44:19;8.32;;;3.47;;
53503;SDS011;39387;50.998;22.340;2023-03-30T02:46:55;4.95;;;2.50;;
53503;SDS011;39387;50.998;22.340;2023-03-30T02:49:29;9.00;;;3.55;;
53503;SDS011;39387;50.998;22.340;2023-03-30T02:52:04;6.45;;;3.33;;
53503;SDS011;39387;50.998;22.340;2023-03-30T02:54:37;9.63;;;3.08;;
53503;SDS011;39387;50.998;22.340;2023-03-30T02:57:10;7.32;;;3.28;;
53503;SDS011;39387;50.998;22.340;2023-03-30T02:59:42;8.05;;;3.20;;
53503;SDS011;39387;50.998;22.340;2023-03-30T03:02:12;7.50;;;3.33;;
53503;SDS011;39387;50.998;22.340;2023-03-30T03:04:43;8.13;;;3.38;;
53503;SDS011;39387;50.998;22.340;2023-03-30T03:07:10;4.63;;;2.92;;
53503;SDS011;39387;50.998;22.340;2023-03-30T03:09:39;6.85;;;3.13;;
53503;SDS011;39387;50.998;22.340;2023-03-30T03:12:06;7.35;;;3.13;;
53503;SDS011;39387;50.998;22.340;2023-03-30T03:14:34;7.45;;;3.47;;
53503;SDS011;39387;50.998;22.340;2023-03-30T03:17:03;5.70;;;2.92;;
53503;SDS011;39387;50.998;22.340;2023-03-30T03:19:31;8.60;;;3.65;;
53503;SDS011;39387;50.998;22.340;2023-03-30T03:21:58;7.80;;;3.35;;
53503;SDS011;39387;50.998;22.340;2023-03-30T03:24:26;5.05;;;2.70;;
53503;SDS011;39387;50.998;22.340;2023-03-30T03:26:53;6.85;;;3.25;;
53503;SDS011;39387;50.998;22.340;2023-03-30T03:29:21;5.40;;;2.78;;
53503;SDS011;39387;50.998;22.340;2023-03-30T03:31:48;5.15;;;3.30;;
53503;SDS011;39387;50.998;22.340;2023-03-30T03:34:18;5.90;;;2.83;;
53503;SDS011;39387;50.998;22.340;2023-03-30T03:36:45;4.85;;;2.60;;
53503;SDS011;39387;50.998;22.340;2023-03-30T03:39:17;7.25;;;3.40;;
53503;SDS011;39387;50.998;22.340;2023-03-30T03:41:44;7.38;;;3.45;;
53503;SDS011;39387;50.998;22.340;2023-03-30T03:44:12;6.40;;;2.97;;
53503;SDS011;39387;50.998;22.340;2023-03-30T03:46:39;5.97;;;2.72;;
53503;SDS011;39387;50.998;22.340;2023-03-30T03:49:06;8.05;;;3.22;;
53503;SDS011;39387;50.998;22.340;2023-03-30T03:51:35;4.68;;;2.65;;
53503;SDS011;39387;50.998;22.340;2023-03-30T03:54:03;5.20;;;2.70;;
53503;SDS011;39387;50.998;22.340;2023-03-30T03:56:30;5.60;;;2.85;;
53503;SDS011;39387;50.998;22.340;2023-03-30T03:58:57;5.45;;;2.97;;
53503;SDS011;39387;50.998;22.340;2023-03-30T04:01:27;6.30;;;3.00;;
53503;SDS011;39387;50.998;22.340;2023-03-30T04:03:55;5.40;;;3.28;;
53503;SDS011;39387;50.998;22.340;2023-03-30T04:06:22;7.55;;;3.67;;
53503;SDS011;39387;50.998;22.340;2023-03-30T04:08:52;6.05;;;2.88;;
53503;SDS011;39387;50.998;22.340;2023-03-30T04:11:19;6.50;;;2.50;;
53503;SDS011;39387;50.998;22.340;2023-03-30T04:13:47;5.90;;;2.75;;
53503;SDS011;39387;50.998;22.340;2023-03-30T04:16:14;7.32;;;2.80;;
53503;SDS011;39387;50.998;22.340;2023-03-30T04:18:41;7.20;;;3.03;;
53503;SDS011;39387;50.998;22.340;2023-03-30T04:21:08;5.57;;;2.92;;
53503;SDS011;39387;50.998;22.340;2023-03-30T04:23:37;5.72;;;2.70;;
53503;SDS011;39387;50.998;22.340;2023-03-30T04:26:11;7.68;;;3.20;;
53503;SDS011;39387;50.998;22.340;2023-03-30T04:28:40;6.72;;;2.45;;
53503;SDS011;39387;50.998;22.340;2023-03-30T04:31:08;7.03;;;3.00;;
53503;SDS011;39387;50.998;22.340;2023-03-30T04:36:10;6.88;;;2.88;;
53503;SDS011;39387;50.998;22.340;2023-03-30T04:38:42;7.45;;;3.13;;
53503;SDS011;39387;50.998;22.340;2023-03-30T04:41:09;5.72;;;2.60;;
53503;SDS011;39387;50.998;22.340;2023-03-30T04:43:40;3.95;;;2.80;;
53503;SDS011;39387;50.998;22.340;2023-03-30T04:46:07;6.68;;;2.88;;
53503;SDS011;39387;50.998;22.340;2023-03-30T04:48:35;6.28;;;2.75;;
53503;SDS011;39387;50.998;22.340;2023-03-30T04:51:02;4.75;;;2.53;;
53503;SDS011;39387;50.998;22.340;2023-03-30T04:53:29;4.10;;;2.50;;
53503;SDS011;39387;50.998;22.340;2023-03-30T04:55:57;8.10;;;2.70;;
53503;SDS011;39387;50.998;22.340;2023-03-30T04:58:24;3.83;;;2.60;;
53503;SDS011;39387;50.998;22.340;2023-03-30T05:00:53;7.47;;;2.33;;
53503;SDS011;39387;50.998;22.340;2023-03-30T05:03:21;7.25;;;2.90;;
53503;SDS011;39387;50.998;22.340;2023-03-30T05:05:48;5.78;;;3.38;;
53503;SDS011;39387;50.998;22.340;2023-03-30T05:08:16;4.10;;;2.58;;
53503;SDS011;39387;50.998;22.340;2023-03-30T05:10:43;5.20;;;2.50;;
53503;SDS011;39387;50.998;22.340;2023-03-30T05:16:02;5.03;;;2.30;;
53503;SDS011;39387;50.998;22.340;2023-03-30T05:18:29;5.22;;;2.58;;
53503;SDS011;39387;50.998;22.340;2023-03-30T05:26:10;5.30;;;2.85;;
53503;SDS011;39387;50.998;22.340;2023-03-30T05:28:37;4.82;;;2.70;;
53503;SDS011;39387;50.998;22.340;2023-03-30T05:31:06;4.88;;;2.30;;
53503;SDS011;39387;50.998;22.340;2023-03-30T05:33:33;4.10;;;2.78;;
53503;SDS011;39387;50.998;22.340;2023-03-30T05:36:01;4.45;;;3.00;;
53503;SDS011;39387;50.998;22.340;2023-03-30T05:38:29;4.63;;;2.47;;
53503;SDS011;39387;50.998;22.340;2023-03-30T05:40:56;5.00;;;2.22;;
53503;SDS011;39387;50.998;22.340;2023-03-30T05:43:24;4.55;;;2.30;;
53503;SDS011;39387;50.998;22.340;2023-03-30T05:45:51;5.97;;;2.38;;
53503;SDS011;39387;50.998;22.340;2023-03-30T05:48:20;5.22;;;2.70;;
53503;SDS011;39387;50.998;22.340;2023-03-30T05:50:47;5.10;;;2.67;;
53503;SDS011;39387;50.998;22.340;2023-03-30T05:53:15;3.80;;;2.67;;
53503;SDS011;39387;50.998;22.340;2023-03-30T05:55:43;3.67;;;1.90;;
53503;SDS011;39387;50.998;22.340;2023-03-30T05:58:11;4.93;;;2.65;;
53503;SDS011;39387;50.998;22.340;2023-03-30T06:00:38;4.32;;;2.67;;
53503;SDS011;39387;50.998;22.340;2023-03-30T06:03:07;4.85;;;2.70;;
53503;SDS011;39387;50.998;22.340;2023-03-30T06:05:36;6.03;;;3.05;;
53503;SDS011;39387;50.998;22.340;2023-03-30T06:08:06;5.95;;;2.28;;
53503;SDS011;39387;50.998;22.340;2023-03-30T06:10:33;5.82;;;2.53;;
53503;SDS011;39387;50.998;22.340;2023-03-30T06:13:01;4.97;;;2.67;;
53503;SDS011;39387;50.998;22.340;2023-03-30T06:15:29;3.65;;;2.60;;
53503;SDS011;39387;50.998;22.340;2023-03-30T06:17:56;4.03;;;2.63;;
53503;SDS011;39387;50.998;22.340;2023-03-30T06:20:24;5.22;;;2.72;;
53503;SDS011;39387;50.998;22.340;2023-03-30T06:22:53;5.93;;;2.83;;
53503;SDS011;39387;50.998;22.340;2023-03-30T06:25:20;5.15;;;2.72;;
53503;SDS011;39387;50.998;22.340;2023-03-30T06:27:49;7.15;;;2.78;;
53503;SDS011;39387;50.998;22.340;2023-03-30T06:30:16;5.53;;;3.15;;
53503;SDS011;39387;50.998;22.340;2023-03-30T06:32:44;3.33;;;2.17;;
53503;SDS011;39387;50.998;22.340;2023-03-30T06:35:11;4.63;;;2.40;;
53503;SDS011;39387;50.998;22.340;2023-03-30T06:37:40;5.68;;;2.97;;
53503;SDS011;39387;50.998;22.340;2023-03-30T06:40:09;4.57;;;2.47;;
53503;SDS011;39387;50.998;22.340;2023-03-30T06:45:06;3.92;;;2.33;;
53503;SDS011;39387;50.998;22.340;2023-03-30T06:47:35;4.07;;;2.53;;
53503;SDS011;39387;50.998;22.340;2023-03-30T06:50:02;5.35;;;2.78;;
53503;SDS011;39387;50.998;22.340;2023-03-30T06:52:32;6.25;;;3.13;;
53503;SDS011;39387;50.998;22.340;2023-03-30T06:55:00;6.40;;;2.70;;
53503;SDS011;39387;50.998;22.340;2023-03-30T06:57:29;4.50;;;2.67;;
53503;SDS011;39387;50.998;22.340;2023-03-30T06:59:57;4.85;;;2.90;;
53503;SDS011;39387;50.998;22.340;2023-03-30T07:02:24;5.47;;;2.85;;
53503;SDS011;39387;50.998;22.340;2023-03-30T07:04:51;6.35;;;3.13;;
53503;SDS011;39387;50.998;22.340;2023-03-30T07:07:18;5.78;;;3.17;;
53503;SDS011;39387;50.998;22.340;2023-03-30T07:09:47;5.43;;;2.58;;
53503;SDS011;39387;50.998;22.340;2023-03-30T07:12:14;4.55;;;2.67;;
53503;SDS011;39387;50.998;22.340;2023-03-30T07:14:43;3.75;;;2.80;;
53503;SDS011;39387;50.998;22.340;2023-03-30T07:17:10;5.95;;;2.88;;
53503;SDS011;39387;50.998;22.340;2023-03-30T07:19:38;6.15;;;2.80;;
53503;SDS011;39387;50.998;22.340;2023-03-30T07:22:05;4.32;;;3.05;;
53503;SDS011;39387;50.998;22.340;2023-03-30T07:24:32;4.63;;;2.72;;
53503;SDS011;39387;50.998;22.340;2023-03-30T07:27:00;6.32;;;2.63;;
53503;SDS011;39387;50.998;22.340;2023-03-30T07:29:27;7.10;;;2.67;;
53503;SDS011;39387;50.998;22.340;2023-03-30T07:31:56;5.30;;;2.90;;
53503;SDS011;39387;50.998;22.340;2023-03-30T07:34:23;5.93;;;2.85;;
53503;SDS011;39387;50.998;22.340;2023-03-30T07:36:51;6.95;;;2.90;;
53503;SDS011;39387;50.998;22.340;2023-03-30T07:39:18;5.45;;;3.03;;
53503;SDS011;39387;50.998;22.340;2023-03-30T07:41:45;5.43;;;2.75;;
53503;SDS011;39387;50.998;22.340;2023-03-30T07:44:13;5.85;;;2.90;;
53503;SDS011;39387;50.998;22.340;2023-03-30T07:46:40;4.75;;;3.03;;
53503;SDS011;39387;50.998;22.340;2023-03-30T07:49:09;5.35;;;3.00;;
53503;SDS011;39387;50.998;22.340;2023-03-30T07:51:37;4.32;;;2.60;;
53503;SDS011;39387;50.998;22.340;2023-03-30T07:54:05;4.43;;;3.20;;
53503;SDS011;39387;50.998;22.340;2023-03-30T07:56:34;7.93;;;3.40;;
53503;SDS011;39387;50.998;22.340;2023-03-30T07:59:04;5.50;;;3.45;;
53503;SDS011;39387;50.998;22.340;2023-03-30T08:01:32;6.13;;;3.10;;
53503;SDS011;39387;50.998;22.340;2023-03-30T08:04:00;9.38;;;4.13;;
53503;SDS011;39387;50.998;22.340;2023-03-30T08:06:29;11.38;;;5.47;;
53503;SDS011;39387;50.998;22.340;2023-03-30T08:08:56;20.33;;;9.07;;
53503;SDS011;39387;50.998;22.340;2023-03-30T08:11:23;24.73;;;11.70;;
53503;SDS011;39387;50.998;22.340;2023-03-30T08:13:51;14.00;;;7.05;;
53503;SDS011;39387;50.998;22.340;2023-03-30T08:16:18;12.32;;;5.45;;
53503;SDS011;39387;50.998;22.340;2023-03-30T08:18:46;9.48;;;4.95;;
53503;SDS011;39387;50.998;22.340;2023-03-30T08:21:13;7.20;;;3.42;;
53503;SDS011;39387;50.998;22.340;2023-03-30T08:23:43;5.95;;;4.10;;
53503;SDS011;39387;50.998;22.340;2023-03-30T08:26:10;19.77;;;10.25;;
53503;SDS011;39387;50.998;22.340;2023-03-30T08:28:38;15.95;;;8.02;;
53503;SDS011;39387;50.998;22.340;2023-03-30T08:31:05;33.53;;;15.48;;
53503;SDS011;39387;50.998;22.340;2023-03-30T08:33:35;19.80;;;8.73;;
53503;SDS011;39387;50.998;22.340;2023-03-30T08:36:03;17.58;;;8.85;;
53503;SDS011;39387;50.998;22.340;2023-03-30T08:38:30;9.88;;;5.38;;
53503;SDS011;39387;50.998;22.340;2023-03-30T08:40:59;6.78;;;4.13;;
53503;SDS011;39387;50.998;22.340;2023-03-30T08:43:38;12.80;;;6.60;;
53503;SDS011;39387;50.998;22.340;2023-03-30T08:46:11;6.45;;;4.05;;
53503;SDS011;39387;50.998;22.340;2023-03-30T08:48:40;9.57;;;4.57;;
53503;SDS011;39387;50.998;22.340;2023-03-30T08:51:10;4.55;;;3.35;;
53503;SDS011;39387;50.998;22.340;2023-03-30T08:53:43;4.90;;;3.20;;
53503;SDS011;39387;50.998;22.340;2023-03-30T08:56:14;7.07;;;4.35;;
53503;SDS011;39387;50.998;22.340;2023-03-30T08:58:44;5.03;;;3.10;;
53503;SDS011;39387;50.998;22.340;2023-03-30T09:01:18;5.75;;;3.30;;
53503;SDS011;39387;50.998;22.340;2023-03-30T09:06:39;5.88;;;3.03;;
53503;SDS011;39387;50.998;22.340;2023-03-30T09:09:12;25.20;;;12.10;;
53503;SDS011;39387;50.998;22.340;2023-03-30T09:11:41;12.77;;;6.97;;
53503;SDS011;39387;50.998;22.340;2023-03-30T09:14:11;8.88;;;4.43;;
53503;SDS011;39387;50.998;22.340;2023-03-30T09:16:45;5.63;;;2.97;;
53503;SDS011;39387;50.998;22.340;2023-03-30T09:19:18;5.05;;;3.15;;
53503;SDS011;39387;50.998;22.340;2023-03-30T09:21:50;5.63;;;3.30;;
53503;SDS011;39387;50.998;22.340;2023-03-30T09:24:20;7.32;;;3.40;;
53503;SDS011;39387;50.998;22.340;2023-03-30T09:26:53;5.25;;;3.22;;
53503;SDS011;39387;50.998;22.340;2023-03-30T09:29:25;4.43;;;3.33;;
53503;SDS011;39387;50.998;22.340;2023-03-30T09:31:54;3.45;;;2.75;;
53503;SDS011;39387;50.998;22.340;2023-03-30T09:34:32;6.35;;;3.65;;
53503;SDS011;39387;50.998;22.340;2023-03-30T09:37:04;6.18;;;3.35;;
53503;SDS011;39387;50.998;22.340;2023-03-30T09:39:33;8.02;;;3.83;;
53503;SDS011;39387;50.998;22.340;2023-03-30T09:42:09;6.47;;;3.55;;
53503;SDS011;39387;50.998;22.340;2023-03-30T09:44:51;5.18;;;3.00;;
53503;SDS011;39387;50.998;22.340;2023-03-30T09:47:23;4.80;;;3.17;;
53503;SDS011;39387;50.998;22.340;2023-03-30T09:49:55;4.78;;;2.80;;
53503;SDS011;39387;50.998;22.340;2023-03-30T09:52:24;6.45;;;3.17;;
53503;SDS011;39387;50.998;22.340;2023-03-30T09:54:53;4.35;;;2.58;;
53503;SDS011;39387;50.998;22.340;2023-03-30T09:57:27;5.38;;;2.97;;
53503;SDS011;39387;50.998;22.340;2023-03-30T09:59:55;5.05;;;2.78;;
53503;SDS011;39387;50.998;22.340;2023-03-30T10:02:24;4.63;;;3.08;;
53503;SDS011;39387;50.998;22.340;2023-03-30T10:04:54;12.13;;;5.60;;
53503;SDS011;39387;50.998;22.340;2023-03-30T10:09:52;18.90;;;8.82;;
53503;SDS011;39387;50.998;22.340;2023-03-30T10:12:22;14.30;;;6.75;;
53503;SDS011;39387;50.998;22.340;2023-03-30T10:14:53;12.30;;;5.90;;
53503;SDS011;39387;50.998;22.340;2023-03-30T10:17:22;8.63;;;4.68;;
53503;SDS011;39387;50.998;22.340;2023-03-30T10:19:51;8.70;;;3.73;;
53503;SDS011;39387;50.998;22.340;2023-03-30T10:22:20;14.20;;;6.63;;
53503;SDS011;39387;50.998;22.340;2023-03-30T10:24:49;8.35;;;4.32;;
53503;SDS011;39387;50.998;22.340;2023-03-30T10:27:17;10.32;;;5.03;;
53503;SDS011;39387;50.998;22.340;2023-03-30T10:29:46;5.00;;;3.10;;
53503;SDS011;39387;50.998;22.340;2023-03-30T10:32:18;6.60;;;3.13;;
53503;SDS011;39387;50.998;22.340;2023-03-30T10:34:47;5.07;;;3.03;;
53503;SDS011;39387;50.998;22.340;2023-03-30T10:37:26;7.43;;;3.03;;
53503;SDS011;39387;50.998;22.340;2023-03-30T10:39:56;5.25;;;3.33;;
53503;SDS011;39387;50.998;22.340;2023-03-30T10:42:24;4.38;;;3.00;;
53503;SDS011;39387;50.998;22.340;2023-03-30T10:44:53;6.13;;;3.30;;
53503;SDS011;39387;50.998;22.340;2023-03-30T10:47:30;5.60;;;3.35;;
53503;SDS011;39387;50.998;22.340;2023-03-30T10:50:12;5.75;;;3.25;;
53503;SDS011;39387;50.998;22.340;2023-03-30T10:52:47;4.63;;;2.92;;
53503;SDS011;39387;50.998;22.340;2023-03-30T10:55:19;4.95;;;2.83;;
53503;SDS011;39387;50.998;22.340;2023-03-30T10:57:50;4.97;;;3.58;;
53503;SDS011;39387;50.998;22.340;2023-03-30T11:00:24;3.67;;;2.80;;
53503;SDS011;39387;50.998;22.340;2023-03-30T11:03:04;4.30;;;2.50;;
53503;SDS011;39387;50.998;22.340;2023-03-30T11:05:34;6.57;;;3.20;;
53503;SDS011;39387;50.998;22.340;2023-03-30T11:10:35;4.05;;;2.53;;
53503;SDS011;39387;50.998;22.340;2023-03-30T11:13:03;4.10;;;2.72;;
53503;SDS011;39387;50.998;22.340;2023-03-30T11:15:33;5.82;;;3.03;;
53503;SDS011;39387;50.998;22.340;2023-03-30T11:18:07;4.00;;;2.42;;
53503;SDS011;39387;50.998;22.340;2023-03-30T11:20:40;5.85;;;2.72;;
53503;SDS011;39387;50.998;22.340;2023-03-30T11:23:12;4.40;;;2.85;;
53503;SDS011;39387;50.998;22.340;2023-03-30T11:25:48;4.10;;;2.35;;
53503;SDS011;39387;50.998;22.340;2023-03-30T11:28:22;5.18;;;2.50;;
53503;SDS011;39387;50.998;22.340;2023-03-30T11:31:00;4.47;;;2.83;;
53503;SDS011;39387;50.998;22.340;2023-03-30T11:33:35;3.55;;;2.47;;
53503;SDS011;39387;50.998;22.340;2023-03-30T11:36:07;4.00;;;2.80;;
53503;SDS011;39387;50.998;22.340;2023-03-30T11:38:43;3.60;;;2.70;;
53503;SDS011;39387;50.998;22.340;2023-03-30T11:41:13;4.60;;;2.70;;
53503;SDS011;39387;50.998;22.340;2023-03-30T11:43:41;5.75;;;3.08;;
53503;SDS011;39387;50.998;22.340;2023-03-30T11:46:11;4.63;;;2.92;;
53503;SDS011;39387;50.998;22.340;2023-03-30T11:48:52;6.07;;;3.58;;
53503;SDS011;39387;50.998;22.340;2023-03-30T11:51:39;4.60;;;3.20;;
53503;SDS011;39387;50.998;22.340;2023-03-30T11:57:22;4.55;;;2.70;;
53503;SDS011;39387;50.998;22.340;2023-03-30T11:59:58;4.07;;;2.65;;
53503;SDS011;39387;50.998;22.340;2023-03-30T12:02:36;5.00;;;2.40;;
53503;SDS011;39387;50.998;22.340;2023-03-30T12:05:10;3.85;;;2.40;;
53503;SDS011;39387;50.998;22.340;2023-03-30T12:07:45;3.55;;;2.60;;
53503;SDS011;39387;50.998;22.340;2023-03-30T12:10:17;4.15;;;3.03;;
53503;SDS011;39387;50.998;22.340;2023-03-30T12:12:47;4.25;;;2.95;;
53503;SDS011;39387;50.998;22.340;2023-03-30T12:15:24;4.22;;;2.75;;
53503;SDS011;39387;50.998;22.340;2023-03-30T12:17:58;3.88;;;2.65;;
53503;SDS011;39387;50.998;22.340;2023-03-30T12:20:32;3.90;;;2.85;;
53503;SDS011;39387;50.998;22.340;2023-03-30T12:23:09;5.45;;;3.08;;
53503;SDS011;39387;50.998;22.340;2023-03-30T12:25:46;6.18;;;2.88;;
53503;SDS011;39387;50.998;22.340;2023-03-30T12:28:22;3.42;;;2.58;;
53503;SDS011;39387;50.998;22.340;2023-03-30T12:30:52;3.35;;;2.55;;
53503;SDS011;39387;50.998;22.340;2023-03-30T12:33:25;6.07;;;2.60;;
53503;SDS011;39387;50.998;22.340;2023-03-30T12:35:58;4.13;;;2.35;;
53503;SDS011;39387;50.998;22.340;2023-03-30T12:38:33;3.38;;;2.47;;
53503;SDS011;39387;50.998;22.340;2023-03-30T12:41:04;3.80;;;2.65;;
53503;SDS011;39387;50.998;22.340;2023-03-30T12:43:42;4.03;;;2.83;;
53503;SDS011;39387;50.998;22.340;2023-03-30T12:46:16;4.97;;;2.80;;
53503;SDS011;39387;50.998;22.340;2023-03-30T12:48:52;4.75;;;2.60;;
53503;SDS011;39387;50.998;22.340;2023-03-30T12:51:30;3.95;;;2.70;;
53503;SDS011;39387;50.998;22.340;2023-03-30T12:57:17;4.18;;;2.78;;
53503;SDS011;39387;50.998;22.340;2023-03-30T13:00:02;4.70;;;2.95;;
53503;SDS011;39387;50.998;22.340;2023-03-30T13:02:46;3.78;;;2.65;;
53503;SDS011;39387;50.998;22.340;2023-03-30T13:05:32;3.58;;;2.90;;
53503;SDS011;39387;50.998;22.340;2023-03-30T13:08:03;4.22;;;2.92;;
53503;SDS011;39387;50.998;22.340;2023-03-30T13:10:34;3.45;;;2.33;;
53503;SDS011;39387;50.998;22.340;2023-03-30T13:13:04;6.38;;;2.80;;
53503;SDS011;39387;50.998;22.340;2023-03-30T13:15:33;4.38;;;2.97;;
53503;SDS011;39387;50.998;22.340;2023-03-30T13:23:48;5.25;;;3.00;;
53503;SDS011;39387;50.998;22.340;2023-03-30T13:26:26;5.38;;;2.80;;
53503;SDS011;39387;50.998;22.340;2023-03-30T13:28:54;3.65;;;2.55;;
53503;SDS011;39387;50.998;22.340;2023-03-30T13:34:26;3.75;;;2.35;;
53503;SDS011;39387;50.998;22.340;2023-03-30T13:36:59;2.95;;;2.17;;
53503;SDS011;39387;50.998;22.340;2023-03-30T13:39:35;3.47;;;2.10;;
53503;SDS011;39387;50.998;22.340;2023-03-30T13:42:11;3.83;;;2.50;;
53503;SDS011;39387;50.998;22.340;2023-03-30T13:44:46;4.70;;;2.30;;
53503;SDS011;39387;50.998;22.340;2023-03-30T13:47:23;3.35;;;2.22;;
53503;SDS011;39387;50.998;22.340;2023-03-30T13:49:57;3.17;;;2.42;;
53503;SDS011;39387;50.998;22.340;2023-03-30T13:52:27;3.28;;;2.33;;
53503;SDS011;39387;50.998;22.340;2023-03-30T13:54:58;5.13;;;2.45;;
53503;SDS011;39387;50.998;22.340;2023-03-30T13:57:28;5.00;;;2.40;;
53503;SDS011;39387;50.998;22.340;2023-03-30T14:00:00;4.28;;;2.33;;
53503;SDS011;39387;50.998;22.340;2023-03-30T14:02:31;4.22;;;2.63;;
53503;SDS011;39387;50.998;22.340;2023-03-30T14:05:10;4.80;;;2.35;;
53503;SDS011;39387;50.998;22.340;2023-03-30T14:07:39;3.40;;;2.40;;
53503;SDS011;39387;50.998;22.340;2023-03-30T14:10:10;4.82;;;2.90;;
53503;SDS011;39387;50.998;22.340;2023-03-30T14:12:39;3.95;;;2.58;;
53503;SDS011;39387;50.998;22.340;2023-03-30T14:15:17;4.78;;;2.83;;
53503;SDS011;39387;50.998;22.340;2023-03-30T14:17:46;5.68;;;2.60;;
53503;SDS011;39387;50.998;22.340;2023-03-30T14:20:18;4.78;;;2.88;;
53503;SDS011;39387;50.998;22.340;2023-03-30T14:22:50;4.07;;;2.30;;
53503;SDS011;39387;50.998;22.340;2023-03-30T14:25:22;4.40;;;2.50;;
53503;SDS011;39387;50.998;22.340;2023-03-30T14:27:52;6.38;;;3.20;;
53503;SDS011;39387;50.998;22.340;2023-03-30T14:30:20;4.50;;;2.60;;
53503;SDS011;39387;50.998;22.340;2023-03-30T14:33:03;4.05;;;2.58;;
53503;SDS011;39387;50.998;22.340;2023-03-30T14:35:31;3.80;;;2.75;;
53503;SDS011;39387;50.998;22.340;2023-03-30T14:38:00;5.25;;;3.00;;
53503;SDS011;39387;50.998;22.340;2023-03-30T14:40:28;4.15;;;2.70;;
53503;SDS011;39387;50.998;22.340;2023-03-30T14:42:56;4.05;;;2.80;;
53503;SDS011;39387;50.998;22.340;2023-03-30T14:45:24;4.85;;;2.97;;
53503;SDS011;39387;50.998;22.340;2023-03-30T14:47:52;4.72;;;3.25;;
53503;SDS011;39387;50.998;22.340;2023-03-30T14:50:20;6.65;;;3.40;;
53503;SDS011;39387;50.998;22.340;2023-03-30T14:52:48;4.32;;;2.83;;
53503;SDS011;39387;50.998;22.340;2023-03-30T14:55:17;5.30;;;3.30;;
53503;SDS011;39387;50.998;22.340;2023-03-30T14:57:49;6.60;;;3.58;;
53503;SDS011;39387;50.998;22.340;2023-03-30T15:00:17;6.78;;;4.43;;
53503;SDS011;39387;50.998;22.340;2023-03-30T15:02:46;5.05;;;3.58;;
53503;SDS011;39387;50.998;22.340;2023-03-30T15:05:15;4.82;;;2.95;;
53503;SDS011;39387;50.998;22.340;2023-03-30T15:07:45;5.70;;;3.47;;
53503;SDS011;39387;50.998;22.340;2023-03-30T15:10:25;6.50;;;3.50;;
53503;SDS011;39387;50.998;22.340;2023-03-30T15:13:00;6.82;;;3.50;;
53503;SDS011;39387;50.998;22.340;2023-03-30T15:15:29;6.53;;;3.28;;
53503;SDS011;39387;50.998;22.340;2023-03-30T15:17:57;5.55;;;3.08;;
53503;SDS011;39387;50.998;22.340;2023-03-30T15:20:26;6.57;;;3.13;;
53503;SDS011;39387;50.998;22.340;2023-03-30T15:22:55;8.07;;;3.47;;
53503;SDS011;39387;50.998;22.340;2023-03-30T15:25:22;6.20;;;4.05;;
53503;SDS011;39387;50.998;22.340;2023-03-30T15:27:57;11.05;;;6.75;;
53503;SDS011;39387;50.998;22.340;2023-03-30T15:32:57;6.65;;;3.90;;
53503;SDS011;39387;50.998;22.340;2023-03-30T15:35:25;9.48;;;5.13;;
53503;SDS011;39387;50.998;22.340;2023-03-30T15:37:55;9.07;;;5.20;;
53503;SDS011;39387;50.998;22.340;2023-03-30T15:40:33;8.70;;;4.80;;
53503;SDS011;39387;50.998;22.340;2023-03-30T15:43:15;8.68;;;4.32;;
53503;SDS011;39387;50.998;22.340;2023-03-30T15:45:46;5.35;;;3.72;;